createdAt,value
2022-11-19T00:00:09.034Z,68.27
2022-11-19T00:01:09.070Z,68.48
2022-11-19T00:02:09.059Z,68.35
2022-11-19T00:03:09.015Z,68.27
2022-11-19T00:04:09.008Z,68.17
2022-11-19T00:05:08.989Z,68.27
2022-11-19T00:06:08.963Z,68.38
2022-11-19T00:07:09.135Z,68.27
2022-11-19T00:08:08.943Z,68.38
2022-11-19T00:09:08.932Z,68.27
2022-11-19T00:10:08.941Z,68.17
2022-11-19T00:11:09.869Z,68.48
2022-11-19T00:12:08.919Z,68.38
2022-11-19T00:13:08.887Z,68.07
2022-11-19T00:14:08.891Z,68.07
2022-11-19T00:15:08.870Z,68.17
2022-11-19T00:16:08.930Z,68.38
2022-11-19T00:17:08.890Z,68.38
2022-11-19T00:18:08.843Z,68.07
2022-11-19T00:19:08.824Z,67.96
2022-11-19T00:20:08.831Z,68.07
2022-11-19T00:21:08.850Z,68.38
2022-11-19T00:22:08.815Z,68.17
2022-11-19T00:23:08.811Z,68.27
2022-11-19T00:24:08.768Z,68.17
2022-11-19T00:25:08.766Z,68.27
2022-11-19T00:26:08.743Z,68.48
2022-11-19T00:27:08.738Z,68.90
2022-11-19T00:28:08.750Z,68.59
2022-11-19T00:29:08.713Z,68.69
2022-11-19T00:30:19.836Z,68.59
2022-11-19T00:31:09.693Z,68.69
2022-11-19T00:32:08.687Z,68.90
2022-11-19T00:33:08.700Z,68.79
2022-11-19T00:34:08.679Z,68.69
2022-11-19T00:35:08.657Z,68.27
2022-11-19T00:36:08.637Z,68.17
2022-11-19T00:37:08.653Z,68.17
2022-11-19T00:38:08.630Z,68.17
2022-11-19T00:39:08.643Z,68.27
2022-11-19T00:40:08.615Z,68.48
2022-11-19T00:41:08.593Z,68.17
2022-11-19T00:42:08.588Z,68.27
2022-11-19T00:43:08.586Z,68.17
2022-11-19T00:44:08.582Z,68.90
2022-11-19T00:45:08.574Z,68.48
2022-11-19T00:46:08.566Z,68.59
2022-11-19T00:47:08.528Z,68.69
2022-11-19T00:48:08.522Z,68.48
2022-11-19T00:49:08.514Z,69.10
2022-11-19T00:50:08.496Z,69.63
2022-11-19T00:51:08.481Z,69.94
2022-11-19T00:52:08.489Z,70.36
2022-11-19T00:53:08.462Z,70.25
2022-11-19T00:54:08.454Z,70.22
2022-11-19T00:55:08.455Z,70.67
2022-11-19T00:56:08.439Z,70.67
2022-11-19T00:57:08.429Z,70.78
2022-11-19T00:58:08.419Z,70.78
2022-11-19T00:59:08.418Z,70.67
2022-11-19T01:00:08.460Z,70.43
2022-11-19T01:01:08.521Z,70.56
2022-11-19T01:02:08.375Z,70.25
2022-11-19T01:03:08.370Z,69.84
2022-11-19T01:04:08.359Z,70.15
2022-11-19T01:05:08.344Z,69.84
2022-11-19T01:06:08.326Z,70.04
2022-11-19T01:07:08.390Z,70.46
2022-11-19T01:08:08.305Z,70.25
2022-11-19T01:09:08.286Z,69.63
2022-11-19T01:10:08.292Z,69.53
2022-11-19T01:11:08.309Z,69.76
2022-11-19T01:12:08.266Z,70.39
2022-11-19T01:13:08.247Z,70.39
2022-11-19T01:14:08.235Z,70.28
2022-11-19T01:15:08.236Z,70.28
2022-11-19T01:16:08.215Z,70.28
2022-11-19T01:17:08.219Z,70.28
2022-11-19T01:18:08.203Z,70.28
2022-11-19T01:19:08.188Z,70.50
2022-11-19T01:20:08.255Z,70.28
2022-11-19T01:21:08.168Z,70.25
2022-11-19T01:22:08.154Z,70.28
2022-11-19T01:23:08.162Z,70.07
2022-11-19T01:24:08.129Z,70.28
2022-11-19T01:25:08.113Z,70.18
2022-11-19T01:26:08.109Z,70.50
2022-11-19T01:27:08.114Z,70.70
2022-11-19T01:28:08.086Z,70.60
2022-11-19T01:29:08.111Z,70.39
2022-11-19T01:30:08.080Z,70.18
2022-11-19T01:31:08.050Z,70.18
2022-11-19T01:32:08.070Z,70.50
2022-11-19T01:33:08.071Z,70.28
2022-11-19T01:34:08.057Z,70.18
2022-11-19T01:35:08.079Z,70.39
2022-11-19T01:36:08.022Z,70.39
2022-11-19T01:37:08.081Z,70.18
2022-11-19T01:38:07.979Z,70.39
2022-11-19T01:39:08.027Z,70.18
2022-11-19T01:40:07.961Z,70.50
2022-11-19T01:41:07.941Z,70.50
2022-11-19T01:42:07.942Z,70.50
2022-11-19T01:43:07.937Z,70.39
2022-11-19T01:44:07.923Z,70.28
2022-11-19T01:45:15.037Z,70.50
2022-11-19T01:46:07.906Z,71.12
2022-11-19T01:47:07.881Z,71.22
2022-11-19T01:48:07.871Z,70.81
2022-11-19T01:49:07.862Z,70.70
2022-11-19T01:50:07.857Z,70.50
2022-11-19T01:51:07.863Z,70.39
2022-11-19T01:52:07.832Z,69.97
2022-11-19T01:53:07.815Z,70.18
2022-11-19T01:54:07.806Z,70.07
2022-11-19T01:55:07.794Z,69.97
2022-11-19T01:56:07.778Z,70.28
2022-11-19T01:57:07.809Z,70.21
2022-11-19T01:58:07.761Z,70.32
2022-11-19T01:59:07.778Z,70.42
2022-11-19T02:00:07.745Z,70.21
2022-11-19T02:01:07.793Z,70.70
2022-11-19T02:02:07.726Z,70.84
2022-11-19T02:03:07.728Z,70.70
2022-11-19T02:04:07.701Z,71.22
2022-11-19T02:05:07.691Z,70.91
2022-11-19T02:06:07.670Z,71.12
2022-11-19T02:07:07.735Z,71.36
2022-11-19T02:08:07.662Z,71.26
2022-11-19T02:09:07.648Z,71.36
2022-11-19T02:10:07.638Z,71.36
2022-11-19T02:11:07.631Z,71.57
2022-11-19T02:12:07.609Z,71.15
2022-11-19T02:13:07.611Z,71.47
2022-11-19T02:14:07.585Z,71.78
2022-11-19T02:15:07.605Z,71.67
2022-11-19T02:16:07.574Z,71.57
2022-11-19T02:17:07.566Z,72.09
2022-11-19T02:18:07.560Z,71.88
2022-11-19T02:19:07.538Z,71.67
2022-11-19T02:20:07.528Z,71.26
2022-11-19T02:21:07.512Z,71.88
2022-11-19T02:22:07.502Z,71.26
2022-11-19T02:23:07.507Z,71.15
2022-11-19T02:24:07.480Z,71.36
2022-11-19T02:25:07.467Z,71.26
2022-11-19T02:26:07.460Z,71.26
2022-11-19T02:27:07.445Z,71.26
2022-11-19T02:28:07.437Z,71.67
2022-11-19T02:29:07.450Z,71.47
2022-11-19T02:30:07.422Z,71.60
2022-11-19T02:31:07.433Z,70.98
2022-11-19T02:32:07.402Z,70.94
2022-11-19T02:33:07.386Z,71.08
2022-11-19T02:34:07.381Z,71.29
2022-11-19T02:35:07.360Z,71.39
2022-11-19T02:36:07.351Z,71.70
2022-11-19T02:37:07.350Z,71.81
2022-11-19T02:38:07.330Z,71.70
2022-11-19T02:39:07.340Z,71.60
2022-11-19T02:40:07.310Z,71.60
2022-11-19T02:41:07.317Z,71.70
2022-11-19T02:42:07.293Z,71.50
2022-11-19T02:43:07.280Z,71.81
2022-11-19T02:44:07.274Z,71.29
2022-11-19T02:45:07.282Z,71.50
2022-11-19T02:46:07.252Z,71.39
2022-11-19T02:47:07.265Z,71.91
2022-11-19T02:48:07.227Z,71.70
2022-11-19T02:49:07.217Z,71.70
2022-11-19T02:50:07.226Z,71.39
2022-11-19T02:51:07.211Z,71.29
2022-11-19T02:52:07.189Z,71.70
2022-11-19T02:53:07.180Z,71.39
2022-11-19T02:54:07.166Z,71.70
2022-11-19T02:55:07.170Z,71.70
2022-11-19T02:56:07.138Z,71.91
2022-11-19T02:57:07.152Z,71.81
2022-11-19T02:58:07.122Z,71.81
2022-11-19T02:59:07.103Z,71.70
2022-11-19T03:00:07.109Z,71.81
2022-11-19T03:01:07.169Z,71.60
2022-11-19T03:02:07.088Z,71.81
2022-11-19T03:03:07.081Z,71.70
2022-11-19T03:04:07.074Z,71.70
2022-11-19T03:05:07.055Z,71.26
2022-11-19T03:06:07.035Z,71.29
2022-11-19T03:07:07.105Z,71.39
2022-11-19T03:08:07.030Z,71.60
2022-11-19T03:09:07.006Z,71.67
2022-11-19T03:10:06.991Z,71.70
2022-11-19T03:11:06.984Z,71.50
2022-11-19T03:12:06.976Z,71.60
2022-11-19T03:13:06.980Z,71.19
2022-11-19T03:14:06.956Z,71.29
2022-11-19T03:15:06.934Z,71.70
2022-11-19T03:16:06.936Z,71.70
2022-11-19T03:17:06.930Z,71.39
2022-11-19T03:18:06.938Z,71.50
2022-11-19T03:19:06.911Z,71.50
2022-11-19T03:20:06.897Z,71.70
2022-11-19T03:21:06.884Z,71.70
2022-11-19T03:22:06.869Z,71.91
2022-11-19T03:23:06.861Z,71.39
2022-11-19T03:24:06.867Z,71.70
2022-11-19T03:25:06.835Z,71.70
2022-11-19T03:26:06.830Z,71.91
2022-11-19T03:27:06.814Z,71.70
2022-11-19T03:28:06.798Z,71.81
2022-11-19T03:29:06.813Z,71.91
2022-11-19T03:30:06.874Z,71.91
2022-11-19T03:31:06.774Z,71.81
2022-11-19T03:32:06.767Z,71.91
2022-11-19T03:33:06.752Z,71.60
2022-11-19T03:34:06.735Z,71.70
2022-11-19T03:35:06.766Z,71.60
2022-11-19T03:36:06.717Z,71.70
2022-11-19T03:37:06.717Z,71.81
2022-11-19T03:38:06.695Z,71.70
2022-11-19T03:39:06.688Z,71.81
2022-11-19T03:40:06.900Z,71.81
2022-11-19T03:41:06.680Z,71.70
2022-11-19T03:42:06.657Z,72.02
2022-11-19T03:43:06.654Z,71.70
2022-11-19T03:44:06.628Z,71.81
2022-11-19T03:45:06.616Z,71.50
2022-11-19T03:46:06.615Z,71.70
2022-11-19T03:47:06.598Z,71.50
2022-11-19T03:48:06.595Z,72.02
2022-11-19T03:49:06.581Z,71.91
2022-11-19T03:50:06.566Z,72.23
2022-11-19T03:51:06.593Z,72.23
2022-11-19T03:52:06.553Z,72.13
2022-11-19T03:53:06.534Z,71.81
2022-11-19T03:54:06.523Z,71.91
2022-11-19T03:55:06.509Z,71.70
2022-11-19T03:56:06.501Z,71.57
2022-11-19T03:57:06.500Z,71.91
2022-11-19T03:58:06.486Z,71.70
2022-11-19T03:59:08.492Z,71.70
2022-11-19T04:00:06.469Z,71.70
2022-11-19T04:01:06.447Z,71.60
2022-11-19T04:02:06.553Z,71.91
2022-11-19T04:03:06.438Z,71.70
2022-11-19T04:04:06.436Z,72.13
2022-11-19T04:05:06.407Z,72.02
2022-11-19T04:06:06.392Z,71.91
2022-11-19T04:07:06.469Z,72.23
2022-11-19T04:08:06.379Z,72.33
2022-11-19T04:09:06.361Z,72.23
2022-11-19T04:10:06.358Z,72.23
2022-11-19T04:11:35.736Z,72.51
2022-11-19T04:12:35.737Z,72.30
2022-11-19T04:13:35.705Z,72.44
2022-11-19T04:14:35.695Z,72.44
2022-11-19T04:15:35.683Z,72.61
2022-11-19T04:16:35.679Z,72.54
2022-11-19T04:17:35.688Z,72.19
2022-11-19T04:18:35.675Z,72.54
2022-11-19T04:19:35.644Z,72.72
2022-11-19T04:20:35.642Z,72.61
2022-11-19T04:21:35.617Z,72.44
2022-11-19T04:22:35.638Z,72.64
2022-11-19T04:23:35.629Z,72.72
2022-11-19T04:24:35.589Z,72.75
2022-11-19T04:25:35.579Z,72.54
2022-11-19T04:26:35.569Z,72.64
2022-11-19T04:27:35.570Z,72.51
2022-11-19T04:28:35.551Z,72.72
2022-11-19T04:29:35.561Z,72.54
2022-11-19T04:30:35.532Z,72.54
2022-11-19T04:31:35.522Z,72.72
2022-11-19T04:32:35.504Z,72.51
2022-11-19T04:33:35.492Z,72.51
2022-11-19T04:34:35.491Z,72.64
2022-11-19T04:35:35.505Z,71.98
2022-11-19T04:36:35.463Z,72.64
2022-11-19T04:37:35.451Z,72.75
2022-11-19T04:38:35.460Z,72.54
2022-11-19T04:39:35.436Z,72.61
2022-11-19T04:40:35.437Z,72.72
2022-11-19T04:41:35.430Z,72.13
2022-11-19T04:42:35.399Z,72.51
2022-11-19T04:43:35.398Z,72.30
2022-11-19T04:44:35.382Z,72.64
2022-11-19T04:45:35.389Z,72.72
2022-11-19T04:46:35.368Z,72.51
2022-11-19T04:47:35.403Z,72.64
2022-11-19T04:48:35.347Z,72.61
2022-11-19T04:49:35.334Z,72.33
2022-11-19T04:50:35.335Z,72.41
2022-11-19T04:51:35.307Z,72.30
2022-11-19T04:52:40.476Z,72.13
2022-11-19T04:53:35.292Z,72.33
2022-11-19T04:54:35.291Z,72.44
2022-11-19T04:55:35.270Z,72.23
2022-11-19T04:56:35.264Z,72.30
2022-11-19T04:57:35.248Z,72.33
2022-11-19T04:58:35.235Z,72.23
2022-11-19T04:59:35.221Z,72.44
2022-11-19T05:00:35.211Z,72.33
2022-11-19T05:01:35.272Z,72.64
2022-11-19T05:02:35.210Z,72.23
2022-11-19T05:03:35.193Z,72.44
2022-11-19T05:04:35.174Z,72.23
2022-11-19T05:05:35.165Z,72.33
2022-11-19T05:06:35.151Z,72.02
2022-11-19T05:07:35.190Z,71.57
2022-11-19T05:08:35.138Z,71.67
2022-11-19T05:09:35.117Z,71.04
2022-11-19T05:10:35.223Z,71.08
2022-11-19T05:11:35.098Z,71.67
2022-11-19T05:12:35.086Z,71.36
2022-11-19T05:13:35.095Z,71.57
2022-11-19T05:14:35.073Z,71.78
2022-11-19T05:15:35.062Z,71.57
2022-11-19T05:16:35.039Z,71.67
2022-11-19T05:17:35.059Z,71.36
2022-11-19T05:18:35.033Z,71.47
2022-11-19T05:19:35.022Z,71.36
2022-11-19T05:20:35.007Z,71.15
2022-11-19T05:21:35.009Z,71.26
2022-11-19T05:22:34.979Z,71.67
2022-11-19T05:23:34.968Z,71.57
2022-11-19T05:24:34.968Z,71.47
2022-11-19T05:25:34.947Z,71.47
2022-11-19T05:26:34.978Z,71.57
2022-11-19T05:27:34.936Z,71.67
2022-11-19T05:28:38.982Z,71.47
2022-11-19T05:29:34.918Z,71.47
2022-11-19T05:30:34.897Z,71.47
2022-11-19T05:31:34.888Z,71.47
2022-11-19T05:32:34.877Z,71.36
2022-11-19T05:33:34.972Z,71.47
2022-11-19T05:34:34.883Z,71.36
2022-11-19T05:35:34.842Z,71.36
2022-11-19T05:36:34.833Z,71.36
2022-11-19T05:37:34.829Z,71.57
2022-11-19T05:38:34.826Z,71.57
2022-11-19T05:39:34.833Z,71.36
2022-11-19T05:40:34.797Z,71.36
2022-11-19T05:41:34.778Z,71.88
2022-11-19T05:42:34.785Z,71.78
2022-11-19T05:43:34.766Z,71.88
2022-11-19T05:44:34.761Z,71.67
2022-11-19T05:45:34.784Z,71.47
2022-11-19T05:46:34.726Z,71.15
2022-11-19T05:47:34.715Z,71.47
2022-11-19T05:48:34.708Z,70.84
2022-11-19T05:49:34.702Z,70.73
2022-11-19T05:50:34.700Z,70.73
2022-11-19T05:51:34.693Z,70.73
2022-11-19T05:52:34.663Z,70.73
2022-11-19T05:53:34.687Z,70.73
2022-11-19T05:54:34.676Z,70.63
2022-11-19T05:55:34.654Z,70.73
2022-11-19T05:56:34.624Z,70.53
2022-11-19T05:57:34.629Z,70.42
2022-11-19T05:58:34.616Z,70.11
2022-11-19T05:59:34.600Z,70.21
2022-11-19T06:00:34.587Z,69.69
2022-11-19T06:01:34.577Z,69.90
2022-11-19T06:02:34.630Z,70.21
2022-11-19T06:03:34.557Z,69.79
2022-11-19T06:04:34.548Z,69.48
2022-11-19T06:05:39.881Z,69.17
2022-11-19T06:06:35.513Z,69.27
2022-11-19T06:07:34.559Z,69.59
2022-11-19T06:08:34.519Z,69.17
2022-11-19T06:09:34.491Z,68.13
2022-11-19T06:10:34.480Z,68.44
2022-11-19T06:11:34.475Z,68.54
2022-11-19T06:12:34.455Z,68.05
2022-11-19T06:13:34.447Z,68.44
2022-11-19T06:14:34.458Z,68.23
2022-11-19T06:15:34.423Z,68.33
2022-11-19T06:16:34.418Z,68.33
2022-11-19T06:17:34.422Z,68.54
2022-11-19T06:18:34.414Z,68.33
2022-11-19T06:19:34.379Z,68.33
2022-11-19T06:20:34.377Z,68.33
2022-11-19T06:21:34.361Z,68.13
2022-11-19T06:22:34.356Z,68.44
2022-11-19T06:23:34.348Z,68.44
2022-11-19T06:24:34.333Z,68.13
2022-11-19T06:25:34.316Z,68.23
2022-11-19T06:26:34.309Z,68.33
2022-11-19T06:27:34.304Z,68.13
2022-11-19T06:28:34.313Z,68.23
2022-11-19T06:29:34.285Z,67.50
2022-11-19T06:30:34.292Z,67.50
2022-11-19T06:31:34.253Z,67.92
2022-11-19T06:32:34.258Z,67.40
2022-11-19T06:33:34.241Z,67.19
2022-11-19T06:34:34.241Z,67.19
2022-11-19T06:35:34.213Z,67.50
2022-11-19T06:36:40.221Z,67.40
2022-11-19T06:37:35.259Z,67.08
2022-11-19T06:38:34.201Z,67.19
2022-11-19T06:39:34.173Z,67.08
2022-11-19T06:40:34.178Z,67.29
2022-11-19T06:41:34.147Z,67.19
2022-11-19T06:42:34.148Z,67.92
2022-11-19T06:43:34.145Z,67.71
2022-11-19T06:44:34.112Z,67.50
2022-11-19T06:45:34.128Z,67.50
2022-11-19T06:46:34.114Z,67.19
2022-11-19T06:47:34.095Z,66.77
2022-11-19T06:48:34.082Z,67.50
2022-11-19T06:49:34.073Z,68.13
2022-11-19T06:50:34.068Z,67.40
2022-11-19T06:51:34.060Z,67.19
2022-11-19T06:52:34.035Z,67.08
2022-11-19T06:53:34.053Z,67.19
2022-11-19T06:54:36.659Z,67.19
2022-11-19T06:55:34.007Z,67.29
2022-11-19T06:56:34.000Z,67.40
2022-11-19T06:57:33.981Z,67.71
2022-11-19T06:58:33.974Z,67.50
2022-11-19T06:59:33.991Z,67.71
2022-11-19T07:00:33.965Z,67.19
2022-11-19T07:01:33.992Z,67.40
2022-11-19T07:02:34.017Z,67.71
2022-11-19T07:03:33.922Z,67.19
2022-11-19T07:04:33.949Z,67.19
2022-11-19T07:05:33.900Z,67.40
2022-11-19T07:06:33.892Z,67.19
2022-11-19T07:07:33.910Z,67.71
2022-11-19T07:08:33.863Z,67.40
2022-11-19T07:09:33.852Z,68.54
2022-11-19T07:10:33.876Z,68.33
2022-11-19T07:11:33.837Z,68.33
2022-11-19T07:12:33.835Z,67.60
2022-11-19T07:13:33.822Z,67.60
2022-11-19T07:14:33.819Z,67.50
2022-11-19T07:15:33.808Z,67.40
2022-11-19T07:16:33.790Z,67.81
2022-11-19T07:17:33.795Z,67.50
2022-11-19T07:18:33.783Z,67.71
2022-11-19T07:19:33.747Z,68.23
2022-11-19T07:20:33.750Z,67.47
2022-11-19T07:21:33.736Z,67.19
2022-11-19T07:22:33.730Z,67.29
2022-11-19T07:23:33.714Z,67.88
2022-11-19T07:24:33.979Z,67.05
2022-11-19T07:25:33.683Z,67.47
2022-11-19T07:26:33.680Z,67.50
2022-11-19T07:27:33.678Z,67.92
2022-11-19T07:28:33.666Z,67.92
2022-11-19T07:29:33.646Z,67.50
2022-11-19T07:30:33.643Z,67.29
2022-11-19T07:31:33.623Z,68.33
2022-11-19T07:32:33.666Z,68.05
2022-11-19T07:33:33.601Z,68.44
2022-11-19T07:34:33.611Z,68.54
2022-11-19T07:35:33.586Z,68.05
2022-11-19T07:36:33.571Z,68.13
2022-11-19T07:37:33.567Z,68.54
2022-11-19T07:38:36.973Z,68.13
2022-11-19T07:39:33.544Z,68.13
2022-11-19T07:40:33.526Z,68.54
2022-11-19T07:41:33.513Z,68.13
2022-11-19T07:42:33.506Z,68.02
2022-11-19T07:43:33.507Z,68.02
2022-11-19T07:44:33.499Z,68.02
2022-11-19T07:45:33.492Z,68.02
2022-11-19T07:46:33.506Z,68.13
2022-11-19T07:47:33.476Z,67.88
2022-11-19T07:48:33.454Z,67.33
2022-11-19T07:49:33.442Z,67.02
2022-11-19T07:50:33.441Z,67.41
2022-11-19T07:51:33.414Z,67.10
2022-11-19T07:52:33.423Z,66.47
2022-11-19T07:53:33.398Z,66.57
2022-11-19T07:54:33.381Z,66.78
2022-11-19T07:55:33.402Z,66.96
2022-11-19T07:56:33.363Z,66.96
2022-11-19T07:57:33.382Z,72.13
2022-11-19T07:58:33.351Z,76.85
2022-11-19T07:59:33.351Z,78.48
2022-11-19T08:00:33.321Z,77.09
2022-11-19T08:01:33.360Z,76.43
2022-11-19T08:02:33.331Z,73.22
2022-11-19T08:03:33.289Z,73.08
2022-11-19T08:04:33.284Z,68.20
2022-11-19T08:05:33.271Z,64.77
2022-11-19T08:06:33.279Z,63.66
2022-11-19T08:07:33.366Z,63.24
2022-11-19T08:08:33.251Z,63.56
2022-11-19T08:09:33.229Z,63.48
2022-11-19T08:10:33.370Z,64.00
2022-11-19T08:11:33.209Z,64.31
2022-11-19T08:12:33.192Z,63.62
2022-11-19T08:13:33.196Z,63.64
2022-11-19T08:14:33.175Z,64.27
2022-11-19T08:15:33.156Z,64.69
2022-11-19T08:16:33.169Z,64.29
2022-11-19T08:17:33.148Z,64.72
2022-11-19T08:18:33.132Z,64.82
2022-11-19T08:19:33.137Z,65.03
2022-11-19T08:20:33.102Z,65.44
2022-11-19T08:21:33.092Z,65.03
2022-11-19T08:22:33.258Z,65.03
2022-11-19T08:23:33.080Z,65.23
2022-11-19T08:24:33.068Z,65.68
2022-11-19T08:25:33.061Z,64.95
2022-11-19T08:26:33.064Z,65.13
2022-11-19T08:27:33.028Z,65.44
2022-11-19T08:28:33.040Z,65.86
2022-11-19T08:29:33.035Z,65.13
2022-11-19T08:30:33.003Z,65.55
2022-11-19T08:31:32.986Z,64.40
2022-11-19T08:32:32.991Z,64.61
2022-11-19T08:33:32.966Z,65.06
2022-11-19T08:34:32.963Z,65.26
2022-11-19T08:35:32.968Z,65.78
2022-11-19T08:36:32.931Z,66.41
2022-11-19T08:37:32.918Z,66.30
2022-11-19T08:38:38.254Z,66.38
2022-11-19T08:39:33.901Z,65.65
2022-11-19T08:40:32.923Z,64.72
2022-11-19T08:41:32.910Z,64.61
2022-11-19T08:42:32.876Z,65.03
2022-11-19T08:43:32.861Z,64.89
2022-11-19T08:44:32.853Z,64.11
2022-11-19T08:45:32.841Z,63.76
2022-11-19T08:46:32.837Z,62.90
2022-11-19T08:47:32.828Z,62.70
2022-11-19T08:48:32.816Z,61.87
2022-11-19T08:49:32.863Z,61.87
2022-11-19T08:50:32.800Z,61.53
2022-11-19T08:51:32.783Z,61.45
2022-11-19T08:52:32.763Z,61.04
2022-11-19T08:53:32.769Z,61.04
2022-11-19T08:54:33.477Z,61.76
2022-11-19T08:55:32.756Z,61.69
2022-11-19T08:56:32.738Z,62.00
2022-11-19T08:57:32.714Z,62.21
2022-11-19T08:58:32.722Z,61.92
2022-11-19T08:59:32.687Z,62.24
2022-11-19T09:00:32.811Z,62.57
2022-11-19T09:01:32.669Z,62.76
2022-11-19T09:02:32.671Z,63.20
2022-11-19T09:03:32.676Z,63.09
2022-11-19T09:04:32.650Z,63.41
2022-11-19T09:05:32.629Z,63.20
2022-11-19T09:06:32.620Z,63.31
2022-11-19T09:07:32.676Z,63.41
2022-11-19T09:08:32.602Z,63.41
2022-11-19T09:09:32.601Z,63.72
2022-11-19T09:10:32.604Z,64.03
2022-11-19T09:11:32.558Z,63.62
2022-11-19T09:12:32.568Z,63.72
2022-11-19T09:13:32.543Z,63.82
2022-11-19T09:14:32.542Z,63.28
2022-11-19T09:15:32.525Z,63.72
2022-11-19T09:16:32.502Z,64.37
2022-11-19T09:17:32.500Z,64.48
2022-11-19T09:18:32.495Z,63.93
2022-11-19T09:19:32.487Z,64.37
2022-11-19T09:20:32.481Z,64.17
2022-11-19T09:21:32.460Z,64.58
2022-11-19T09:22:32.438Z,64.58
2022-11-19T09:23:32.429Z,64.48
2022-11-19T09:24:32.416Z,64.37
2022-11-19T09:25:32.444Z,64.14
2022-11-19T09:26:32.433Z,63.82
2022-11-19T09:27:32.386Z,63.48
2022-11-19T09:28:32.383Z,63.72
2022-11-19T09:29:32.363Z,63.72
2022-11-19T09:30:32.353Z,63.48
2022-11-19T09:31:32.342Z,62.96
2022-11-19T09:32:32.365Z,62.76
2022-11-19T09:33:32.335Z,63.07
2022-11-19T09:34:32.313Z,62.96
2022-11-19T09:35:32.305Z,62.55
2022-11-19T09:36:32.289Z,62.31
2022-11-19T09:37:32.282Z,62.52
2022-11-19T09:38:32.286Z,62.52
2022-11-19T09:39:32.264Z,62.10
2022-11-19T09:40:42.494Z,61.69
2022-11-19T09:41:32.239Z,61.76
2022-11-19T09:42:32.243Z,61.66
2022-11-19T09:43:32.229Z,61.24
2022-11-19T09:44:32.210Z,61.04
2022-11-19T09:45:32.190Z,61.14
2022-11-19T09:46:32.195Z,61.01
2022-11-19T09:47:32.170Z,60.77
2022-11-19T09:48:32.181Z,60.36
2022-11-19T09:49:32.149Z,60.25
2022-11-19T09:50:32.141Z,60.15
2022-11-19T09:51:32.133Z,59.94
2022-11-19T09:52:32.140Z,59.50
2022-11-19T09:53:32.165Z,59.91
2022-11-19T09:54:32.106Z,60.02
2022-11-19T09:55:32.087Z,59.61
2022-11-19T09:56:32.075Z,58.78
2022-11-19T09:57:32.068Z,59.19
2022-11-19T09:58:32.089Z,58.91
2022-11-19T09:59:32.059Z,59.42
2022-11-19T10:00:32.046Z,59.01
2022-11-19T10:01:32.030Z,59.45
2022-11-19T10:02:32.056Z,59.17
2022-11-19T10:03:33.845Z,60.13
2022-11-19T10:04:32.009Z,60.21
2022-11-19T10:05:31.988Z,60.52
2022-11-19T10:06:31.979Z,60.83
2022-11-19T10:07:32.026Z,60.55
2022-11-19T10:08:31.949Z,60.44
2022-11-19T10:09:31.958Z,60.44
2022-11-19T10:10:31.933Z,60.72
2022-11-19T10:11:31.933Z,60.31
2022-11-19T10:12:31.908Z,59.79
2022-11-19T10:13:31.897Z,59.40
2022-11-19T10:14:31.905Z,59.19
2022-11-19T10:15:37.174Z,59.22
2022-11-19T10:16:32.865Z,60.16
2022-11-19T10:17:31.859Z,60.34
2022-11-19T10:18:31.847Z,60.57
2022-11-19T10:19:31.913Z,60.55
2022-11-19T10:20:31.828Z,60.05
2022-11-19T10:21:31.833Z,60.36
2022-11-19T10:22:31.806Z,60.29
2022-11-19T10:23:31.799Z,60.60
2022-11-19T10:24:31.784Z,61.02
2022-11-19T10:25:31.767Z,60.60
2022-11-19T10:26:31.787Z,61.25
2022-11-19T10:27:31.748Z,60.73
2022-11-19T10:28:31.734Z,61.15
2022-11-19T10:29:31.724Z,61.25
2022-11-19T10:30:31.727Z,61.67
2022-11-19T10:31:31.768Z,61.46
2022-11-19T10:32:31.713Z,61.57
2022-11-19T10:33:31.710Z,61.25
2022-11-19T10:34:31.672Z,61.25
2022-11-19T10:35:31.673Z,61.43
2022-11-19T10:36:31.653Z,61.54
2022-11-19T10:37:31.680Z,61.33
2022-11-19T10:38:31.626Z,60.99
2022-11-19T10:39:31.641Z,60.71
2022-11-19T10:40:31.604Z,59.64
2022-11-19T10:41:31.595Z,59.98
2022-11-19T10:42:31.589Z,59.88
2022-11-19T10:43:31.585Z,60.19
2022-11-19T10:44:31.566Z,59.95
2022-11-19T10:45:31.559Z,59.43
2022-11-19T10:46:31.564Z,59.25
2022-11-19T10:47:31.533Z,59.64
2022-11-19T10:48:31.535Z,59.04
2022-11-19T10:49:31.515Z,59.43
2022-11-19T10:50:31.503Z,60.05
2022-11-19T10:51:31.489Z,59.33
2022-11-19T10:52:31.474Z,59.43
2022-11-19T10:53:31.481Z,58.98
2022-11-19T10:54:31.466Z,58.54
2022-11-19T10:55:31.465Z,57.51
2022-11-19T10:56:31.440Z,57.51
2022-11-19T10:57:31.430Z,58.13
2022-11-19T10:58:31.417Z,57.92
2022-11-19T10:59:31.398Z,57.90
2022-11-19T11:00:31.386Z,57.07
2022-11-19T11:01:31.509Z,57.07
2022-11-19T11:02:31.414Z,57.28
2022-11-19T11:03:31.357Z,57.14
2022-11-19T11:04:31.351Z,56.24
2022-11-19T11:05:31.343Z,56.93
2022-11-19T11:06:31.338Z,56.83
2022-11-19T11:07:31.325Z,57.35
2022-11-19T11:08:31.318Z,57.64
2022-11-19T11:09:31.299Z,57.12
2022-11-19T11:10:31.289Z,56.70
2022-11-19T11:11:31.283Z,56.49
2022-11-19T11:12:31.268Z,56.05
2022-11-19T11:13:31.250Z,56.49
2022-11-19T11:14:31.247Z,56.37
2022-11-19T11:15:31.234Z,56.99
2022-11-19T11:16:35.151Z,56.60
2022-11-19T11:17:31.218Z,57.35
2022-11-19T11:18:31.219Z,57.14
2022-11-19T11:19:31.192Z,57.56
2022-11-19T11:20:31.197Z,57.66
2022-11-19T11:21:31.171Z,57.64
2022-11-19T11:22:31.168Z,57.53
2022-11-19T11:23:31.155Z,57.76
2022-11-19T11:24:31.142Z,58.57
2022-11-19T11:25:31.118Z,58.57
2022-11-19T11:26:31.114Z,58.26
2022-11-19T11:27:31.113Z,57.95
2022-11-19T11:28:31.122Z,58.88
2022-11-19T11:29:31.087Z,59.37
2022-11-19T11:30:31.077Z,58.44
2022-11-19T11:31:31.080Z,58.64
2022-11-19T11:32:31.054Z,58.64
2022-11-19T11:33:31.059Z,58.51
2022-11-19T11:34:31.045Z,58.51
2022-11-19T11:35:31.035Z,58.93
2022-11-19T11:36:31.005Z,58.69
2022-11-19T11:37:31.004Z,58.38
2022-11-19T11:38:30.993Z,58.69
2022-11-19T11:39:30.997Z,58.38
2022-11-19T11:40:30.957Z,58.90
2022-11-19T11:42:04.443Z,58.90
2022-11-19T11:42:31.967Z,58.98
2022-11-19T11:43:30.938Z,58.36
2022-11-19T11:44:30.926Z,58.56
2022-11-19T11:45:30.912Z,58.46
2022-11-19T11:46:30.920Z,58.56
2022-11-19T11:47:30.905Z,58.33
2022-11-19T11:48:30.873Z,59.08
2022-11-19T11:49:30.873Z,58.56
2022-11-19T11:50:30.906Z,59.42
2022-11-19T11:51:30.860Z,60.14
2022-11-19T11:52:30.843Z,60.56
2022-11-19T11:53:30.833Z,60.79
2022-11-19T11:54:30.819Z,61.10
2022-11-19T11:55:30.824Z,61.00
2022-11-19T11:56:30.798Z,61.10
2022-11-19T11:57:30.784Z,61.62
2022-11-19T11:58:30.779Z,61.76
2022-11-19T11:59:30.774Z,61.62
2022-11-19T12:00:30.749Z,62.14
2022-11-19T12:01:30.752Z,62.14
2022-11-19T12:02:30.969Z,62.35
2022-11-19T12:03:30.735Z,61.62
2022-11-19T12:04:30.712Z,61.80
2022-11-19T12:05:30.694Z,61.80
2022-11-19T12:06:30.709Z,61.49
2022-11-19T12:07:30.718Z,61.46
2022-11-19T12:08:30.686Z,61.05
2022-11-19T12:09:30.663Z,60.94
2022-11-19T12:10:30.653Z,60.74
2022-11-19T12:11:30.639Z,60.84
2022-11-19T12:12:30.619Z,61.07
2022-11-19T12:13:30.619Z,61.18
2022-11-19T12:14:30.627Z,61.80
2022-11-19T12:15:30.595Z,61.59
2022-11-19T12:16:30.587Z,62.11
2022-11-19T12:17:30.567Z,62.52
2022-11-19T12:18:30.563Z,62.32
2022-11-19T12:19:30.547Z,61.80
2022-11-19T12:20:30.560Z,61.80
2022-11-19T12:21:30.536Z,61.80
2022-11-19T12:22:30.609Z,61.80
2022-11-19T12:23:30.505Z,62.04
2022-11-19T12:24:30.492Z,62.87
2022-11-19T12:25:30.502Z,63.41
2022-11-19T12:26:30.473Z,63.41
2022-11-19T12:27:30.478Z,64.24
2022-11-19T12:28:30.460Z,64.55
2022-11-19T12:29:30.438Z,64.55
2022-11-19T12:30:30.459Z,64.14
2022-11-19T12:31:30.419Z,64.24
2022-11-19T12:32:30.423Z,64.55
2022-11-19T12:33:30.397Z,64.31
2022-11-19T12:34:30.386Z,64.42
2022-11-19T12:35:30.403Z,64.94
2022-11-19T12:36:30.365Z,65.04
2022-11-19T12:37:30.358Z,64.80
2022-11-19T12:38:30.377Z,65.22
2022-11-19T12:39:30.343Z,64.90
2022-11-19T12:40:38.486Z,65.01
2022-11-19T12:41:31.336Z,65.11
2022-11-19T12:42:30.316Z,65.66
2022-11-19T12:43:30.307Z,66.05
2022-11-19T12:44:30.286Z,65.84
2022-11-19T12:45:30.264Z,65.87
2022-11-19T12:46:30.258Z,66.05
2022-11-19T12:47:30.259Z,66.59
2022-11-19T12:48:30.259Z,66.35
2022-11-19T12:49:30.260Z,66.15
2022-11-19T12:50:30.243Z,66.15
2022-11-19T12:51:30.221Z,65.66
2022-11-19T12:52:30.196Z,66.05